NL: Dit is een oude website, die alleen gebruikt wordt om te testen, klik hier om naar de recente site te gaan.

EN: Visit my current website using this link.



Lokaal brand risico:
CBI


Regionaal brand risico: Meer informatie


webcam Meer informatie webcam


Bezoek onze andere website:

Wilsele/HerentWebsite of another weatherstation



METAR rapporten vliegvelden

   
EBAW - Antwerp
Gewijzigd: 02-04-2020 14:50
Grotendeels bewolkt  
Grotendeels bewolkt  
   Wind: Westen 19 km/h
Wind: Westen 19 km/h
Temperatuur: 10°C
Voelt als: 8°C
Dauwpunt: 1°C
Vochtigheid: 54%
Barometer: 1014 hPa
Bewolking: Grotendeels bewolkt
Zicht: meer dan 10 km
Bewolking: Grotendeels bewolkt 3500 ft
EBAW 021250Z 28010KT 9999 BKN035 10/01 Q1014 NOSIG
EBLG - Li├Ęge
Gewijzigd: 02-04-2020 14:50
Grotendeels bewolkt  
Grotendeels bewolkt  
   Wind: WNW 9 km/h
Wind: WNW 9 km/h
Temperatuur: 9°C
Voelt als: 8°C
Dauwpunt: -1°C
Vochtigheid: 50%
Barometer: 1014 hPa
Bewolking: Grotendeels bewolkt
Zicht: meer dan 10 km
Bewolking: Grotendeels bewolkt 4300 ft
EBLG 021250Z 29005KT 240V350 9999 BKN043 09/M01 Q1014 NOSIG
EBOS - Oostende
Gewijzigd: 02-04-2020 14:50
Licht bewolkt  
Licht bewolkt  
   Wind: Westen 30 km/h
Wind: Westen 30 km/h
Temperatuur: 10°C
Voelt als: 7°C
Dauwpunt: 1°C
Vochtigheid: 54%
Barometer: 1015 hPa
Bewolking: Licht bewolkt
Zicht: meer dan 10 km
Bewolking: Licht bewolkt 2000 ft
EBOS 021250Z 26016KT 9999 FEW020 10/01 Q1015 NOSIG
EHBK - Maastricht
Gewijzigd: 02-04-2020 14:55
Bewolking  
Bewolking  
   Wind: WNW 11 km/h
Wind: WNW 11 km/h
Temperatuur: 9°C
Voelt als: 7°C
Dauwpunt: 0°C
Vochtigheid: 54%
Barometer: 1013 hPa
Bewolking: Bewolking
Zicht: meer dan 10 km
Bewolking: Bewolking 4100 ft
EHBK 021255Z AUTO 29006KT 230V340 9999 OVC041 09/M00 Q1013 NOSIG
ELLX - Luxemburg
Gewijzigd: 02-04-2020 14:50
Helder  
Helder  
   Wind: ZW 17 km/h
Wind: ZW 17 km/h
Temperatuur: 11°C
Dauwpunt: -5°C
Vochtigheid: 32%
Barometer: 1012 hPa
Zicht: meer dan 10 km
Bewolking: Helder
ELLX 021250Z 23009KT 180V280 CAVOK 11/M05 Q1012 NOSIG
EBCV - Mons/Bergen
Gewijzigd: 02-04-2020 14:55
Bewolking  
Bewolking  
   Wind: WNW 17 km/h
Wind: WNW 17 km/h
Temperatuur: 9°C
Voelt als: 7°C
Dauwpunt: 0°C
Vochtigheid: 54%
Barometer: 1015 hPa
Bewolking: Bewolking
Zicht: meer dan 10 km
Bewolking: Bewolking 4100 ft
EBCV 021255Z AUTO 29009KT 9999 OVC041/// 09/00 Q1015 BLU

Script ontwikkeld door  Saratoga-weather.org Aangepast voor de template door  Weerstation Leuven

Apparatuur in gebruik:

Weerstation
Davis VUE

Weerprogramma
Davis Weatherlink.Com

Webleverancier
Robohost

Davis VUE

Davis Weatherlink.Com

Robohost